createdAt,value
2023-05-22T00:00:08.304Z,534.52
2023-05-22T00:00:18.286Z,534.47
2023-05-22T00:00:28.288Z,534.86
2023-05-22T00:00:38.412Z,534.74
2023-05-22T00:00:48.283Z,534.67
2023-05-22T00:00:58.281Z,534.61
2023-05-22T00:01:08.284Z,534.29
2023-05-22T00:01:18.285Z,534.40
2023-05-22T00:01:38.310Z,534.86
2023-05-22T00:01:48.317Z,534.79
2023-05-22T00:01:58.309Z,534.98
2023-05-22T00:02:08.379Z,534.84
2023-05-22T00:02:18.330Z,534.68
2023-05-22T00:02:28.424Z,534.70
2023-05-22T00:02:48.432Z,534.68
2023-05-22T00:02:58.341Z,534.44
2023-05-22T00:03:08.302Z,534.72
2023-05-22T00:03:18.322Z,534.68
2023-05-22T00:03:28.318Z,534.87
2023-05-22T00:03:38.299Z,534.98
2023-05-22T00:03:58.293Z,534.97
2023-05-22T00:04:08.312Z,535.00
2023-05-22T00:04:18.302Z,535.06
2023-05-22T00:04:28.306Z,535.02
2023-05-22T00:04:38.355Z,534.88
2023-05-22T00:04:48.316Z,534.85
2023-05-22T00:04:58.347Z,534.72
2023-05-22T00:05:18.414Z,534.76
2023-05-22T00:05:28.404Z,534.64
2023-05-22T00:05:38.350Z,534.74
2023-05-22T00:05:48.312Z,534.85
2023-05-22T00:05:58.306Z,534.87
2023-05-22T00:06:08.302Z,535.09
2023-05-22T00:06:18.306Z,535.20
2023-05-22T00:06:38.300Z,535.34
2023-05-22T00:06:48.303Z,535.33
2023-05-22T00:06:58.303Z,535.26
2023-05-22T00:07:08.302Z,535.23
2023-05-22T00:07:18.316Z,535.22
2023-05-22T00:07:28.336Z,535.05
2023-05-22T00:07:38.331Z,535.00
2023-05-22T00:07:48.319Z,535.02
2023-05-22T00:07:58.313Z,535.10
2023-05-22T00:08:08.308Z,535.31
2023-05-22T00:08:18.319Z,535.13
2023-05-22T00:08:29.721Z,535.16
2023-05-22T00:08:48.326Z,535.12
2023-05-22T00:08:58.312Z,535.33
2023-05-22T00:09:08.322Z,535.01
2023-05-22T00:09:18.326Z,535.21
2023-05-22T00:09:28.321Z,535.22
2023-05-22T00:09:38.317Z,535.29
2023-05-22T00:09:58.331Z,535.31
2023-05-22T00:10:08.319Z,535.15
2023-05-22T00:10:18.317Z,535.33
2023-05-22T00:10:28.315Z,535.58
2023-05-22T00:10:38.493Z,535.73
2023-05-22T00:10:48.318Z,535.67
2023-05-22T00:11:08.323Z,535.53
2023-05-22T00:11:18.323Z,535.10
2023-05-22T00:11:28.320Z,535.27
2023-05-22T00:11:38.318Z,535.12
2023-05-22T00:11:48.340Z,535.39
2023-05-22T00:11:58.320Z,535.38
2023-05-22T00:12:08.329Z,535.36
2023-05-22T00:12:18.325Z,535.35
2023-05-22T00:12:28.318Z,535.38
2023-05-22T00:12:38.322Z,535.53
2023-05-22T00:12:58.321Z,535.21
2023-05-22T00:13:08.341Z,535.77
2023-05-22T00:13:18.336Z,535.38
2023-05-22T00:13:28.328Z,536.00
2023-05-22T00:13:38.325Z,535.80
2023-05-22T00:13:48.324Z,535.51
2023-05-22T00:13:58.336Z,535.25
2023-05-22T00:14:18.336Z,536.04
2023-05-22T00:14:28.365Z,535.96
2023-05-22T00:14:38.339Z,535.59
2023-05-22T00:14:48.331Z,535.65
2023-05-22T00:14:58.332Z,535.50
2023-05-22T00:15:08.352Z,535.49
2023-05-22T00:15:28.333Z,535.52
2023-05-22T00:15:38.349Z,535.70
2023-05-22T00:15:48.348Z,535.84
2023-05-22T00:15:58.363Z,535.84
2023-05-22T00:16:08.340Z,535.94
2023-05-22T00:16:18.349Z,535.75
2023-05-22T00:16:28.380Z,536.02
2023-05-22T00:16:48.599Z,535.68
2023-05-22T00:16:58.523Z,535.44
2023-05-22T00:17:08.413Z,535.68
2023-05-22T00:17:18.510Z,535.27
2023-05-22T00:17:28.377Z,535.60
2023-05-22T00:17:38.365Z,535.69
2023-05-22T00:17:48.373Z,535.88
2023-05-22T00:17:58.386Z,535.74
2023-05-22T00:18:18.355Z,535.81
2023-05-22T00:18:28.354Z,535.81
2023-05-22T00:18:38.344Z,535.78
2023-05-22T00:18:48.397Z,535.97
2023-05-22T00:18:58.398Z,535.69
2023-05-22T00:19:08.368Z,535.73
2023-05-22T00:19:18.419Z,535.77
2023-05-22T00:19:28.382Z,535.75
2023-05-22T00:19:38.400Z,535.82
2023-05-22T00:19:48.350Z,535.70
2023-05-22T00:20:08.374Z,535.73
2023-05-22T00:20:18.361Z,536.19
2023-05-22T00:20:28.349Z,536.13
2023-05-22T00:20:38.714Z,536.27
2023-05-22T00:20:48.353Z,536.33
2023-05-22T00:20:58.352Z,536.17
2023-05-22T00:21:08.358Z,536.16
2023-05-22T00:21:18.362Z,536.16
2023-05-22T00:21:28.384Z,535.94
2023-05-22T00:21:38.364Z,536.10
2023-05-22T00:21:48.351Z,536.10
2023-05-22T00:21:58.369Z,536.10
2023-05-22T00:22:08.361Z,535.99
2023-05-22T00:22:18.357Z,536.00
2023-05-22T00:22:38.377Z,536.16
2023-05-22T00:22:48.359Z,536.18
2023-05-22T00:22:58.368Z,536.21
2023-05-22T00:23:08.365Z,536.29
2023-05-22T00:23:18.376Z,536.11
2023-05-22T00:23:28.362Z,536.11
2023-05-22T00:23:38.363Z,536.14
2023-05-22T00:23:48.388Z,536.11
2023-05-22T00:23:58.402Z,535.86
2023-05-22T00:24:08.376Z,535.95
2023-05-22T00:24:18.366Z,535.74
2023-05-22T00:24:28.367Z,536.13
2023-05-22T00:24:38.391Z,536.29
2023-05-22T00:24:58.382Z,535.85
2023-05-22T00:25:08.371Z,536.07
2023-05-22T00:25:18.370Z,536.21
2023-05-22T00:25:28.366Z,536.01
2023-05-22T00:25:38.387Z,536.04
2023-05-22T00:25:48.375Z,535.99
2023-05-22T00:25:58.370Z,536.31
2023-05-22T00:26:08.376Z,536.03
2023-05-22T00:26:18.389Z,535.81
2023-05-22T00:26:28.392Z,536.19
2023-05-22T00:26:48.378Z,535.90
2023-05-22T00:26:58.399Z,536.03
2023-05-22T00:27:08.378Z,536.05
2023-05-22T00:27:18.389Z,535.94
2023-05-22T00:27:28.374Z,535.96
2023-05-22T00:27:38.382Z,536.00
2023-05-22T00:27:48.380Z,535.99
2023-05-22T00:27:58.379Z,536.05
2023-05-22T00:28:08.383Z,536.24
2023-05-22T00:28:18.389Z,536.21
2023-05-22T00:28:28.387Z,536.22
2023-05-22T00:28:38.414Z,536.44
2023-05-22T00:28:48.388Z,536.27
2023-05-22T00:28:58.388Z,536.31
2023-05-22T00:29:08.386Z,536.18
2023-05-22T00:29:18.413Z,536.01
2023-05-22T00:29:28.396Z,536.06
2023-05-22T00:29:48.389Z,536.16
2023-05-22T00:29:58.408Z,536.09
2023-05-22T00:30:08.396Z,536.17
2023-05-22T00:30:18.391Z,536.17
2023-05-22T00:30:28.389Z,535.83
2023-05-22T00:30:38.683Z,535.93
2023-05-22T00:30:48.406Z,536.27
2023-05-22T00:30:58.394Z,536.28
2023-05-22T00:31:08.397Z,536.55
2023-05-22T00:31:18.413Z,536.48
2023-05-22T00:31:28.420Z,536.45
2023-05-22T00:31:38.397Z,536.52
2023-05-22T00:31:48.394Z,536.27
2023-05-22T00:31:58.428Z,536.20
2023-05-22T00:32:08.408Z,536.04
2023-05-22T00:32:18.414Z,536.12
2023-05-22T00:32:28.486Z,536.19
2023-05-22T00:32:38.444Z,536.17
2023-05-22T00:32:48.494Z,536.17
2023-05-22T00:33:08.452Z,536.27
2023-05-22T00:33:18.425Z,536.21
2023-05-22T00:33:28.411Z,536.33
2023-05-22T00:33:38.421Z,536.29
2023-05-22T00:33:48.458Z,536.23
2023-05-22T00:33:58.448Z,536.21
2023-05-22T00:34:08.459Z,536.35
2023-05-22T00:34:18.472Z,536.23
2023-05-22T00:34:28.488Z,536.23
2023-05-22T00:34:38.579Z,536.27
2023-05-22T00:34:48.452Z,536.61
2023-05-22T00:34:58.410Z,536.28
2023-05-22T00:35:18.414Z,536.12
2023-05-22T00:35:28.419Z,536.16
2023-05-22T00:35:38.425Z,536.00
2023-05-22T00:35:48.430Z,536.39
2023-05-22T00:35:58.421Z,536.35
2023-05-22T00:36:08.415Z,536.27
2023-05-22T00:36:18.427Z,536.16
2023-05-22T00:36:28.423Z,536.43
2023-05-22T00:36:38.420Z,536.26
2023-05-22T00:36:48.426Z,536.28
2023-05-22T00:36:58.429Z,536.27
2023-05-22T00:37:08.416Z,536.34
2023-05-22T00:37:18.422Z,536.34
2023-05-22T00:37:28.423Z,536.34
2023-05-22T00:37:38.423Z,536.31
2023-05-22T00:37:48.439Z,536.44
2023-05-22T00:37:58.430Z,536.39
2023-05-22T00:38:08.430Z,536.48
2023-05-22T00:38:18.426Z,536.39
2023-05-22T00:38:28.449Z,536.30
2023-05-22T00:38:38.429Z,536.38
2023-05-22T00:38:58.449Z,536.37
2023-05-22T00:39:08.427Z,536.29
2023-05-22T00:39:18.429Z,536.21
2023-05-22T00:39:28.432Z,536.20
2023-05-22T00:39:38.447Z,536.07
2023-05-22T00:39:48.435Z,536.00
2023-05-22T00:40:08.459Z,536.17
2023-05-22T00:40:18.458Z,536.25
2023-05-22T00:40:28.436Z,536.22
2023-05-22T00:40:38.635Z,536.34
2023-05-22T00:40:48.483Z,536.68
2023-05-22T00:40:58.440Z,536.33
2023-05-22T00:41:08.440Z,536.70
2023-05-22T00:41:28.438Z,536.83
2023-05-22T00:41:38.444Z,536.39
2023-05-22T00:41:48.447Z,536.59
2023-05-22T00:41:58.479Z,536.40
2023-05-22T00:42:08.450Z,536.32
2023-05-22T00:42:18.514Z,536.45
2023-05-22T00:42:28.451Z,536.27
2023-05-22T00:42:38.449Z,536.04
2023-05-22T00:42:48.445Z,535.97
2023-05-22T00:42:58.473Z,536.02
2023-05-22T00:43:08.834Z,536.24
2023-05-22T00:43:18.450Z,536.21
2023-05-22T00:43:28.465Z,536.17
2023-05-22T00:43:38.483Z,536.10
2023-05-22T00:43:48.451Z,536.10
2023-05-22T00:43:58.489Z,536.20
2023-05-22T00:44:18.457Z,536.04
2023-05-22T00:44:28.468Z,536.08
2023-05-22T00:44:38.498Z,536.25
2023-05-22T00:44:48.478Z,536.30
2023-05-22T00:44:58.493Z,536.09
2023-05-22T00:45:08.460Z,536.11
2023-05-22T00:45:18.461Z,536.17
2023-05-22T00:45:28.466Z,536.38
2023-05-22T00:45:48.467Z,536.31
2023-05-22T00:45:58.466Z,536.02
2023-05-22T00:46:08.511Z,536.01
2023-05-22T00:46:18.503Z,536.10
2023-05-22T00:46:28.508Z,536.16
2023-05-22T00:46:38.524Z,536.00
2023-05-22T00:46:48.540Z,536.21
2023-05-22T00:46:58.501Z,536.29
2023-05-22T00:47:18.472Z,536.19
2023-05-22T00:47:28.487Z,536.08
2023-05-22T00:47:38.506Z,536.05
2023-05-22T00:47:48.496Z,535.96
2023-05-22T00:47:58.590Z,536.15
2023-05-22T00:48:08.551Z,536.00
2023-05-22T00:48:18.481Z,536.04
2023-05-22T00:48:28.488Z,535.99
2023-05-22T00:48:48.477Z,535.94
2023-05-22T00:48:58.474Z,536.21
2023-05-22T00:49:08.476Z,536.12
2023-05-22T00:49:18.477Z,536.19
2023-05-22T00:49:28.473Z,536.23
2023-05-22T00:49:38.493Z,536.19
2023-05-22T00:49:48.492Z,536.26
2023-05-22T00:50:08.486Z,536.40
2023-05-22T00:50:18.482Z,536.20
2023-05-22T00:50:28.486Z,536.24
2023-05-22T00:50:38.842Z,536.26
2023-05-22T00:50:48.481Z,536.30
2023-05-22T00:50:58.491Z,536.29
2023-05-22T00:51:08.536Z,536.30
2023-05-22T00:51:18.561Z,536.30
2023-05-22T00:51:28.482Z,536.07
2023-05-22T00:51:38.484Z,536.21
2023-05-22T00:51:48.485Z,536.34
2023-05-22T00:51:58.488Z,536.15
2023-05-22T00:52:18.494Z,536.22
2023-05-22T00:52:28.488Z,536.02
2023-05-22T00:52:38.492Z,536.45
2023-05-22T00:52:48.487Z,536.33
2023-05-22T00:52:58.528Z,536.34
2023-05-22T00:53:08.516Z,536.19
2023-05-22T00:53:18.515Z,536.24
2023-05-22T00:53:28.507Z,536.22
2023-05-22T00:53:38.494Z,536.13
2023-05-22T00:53:48.498Z,536.47
2023-05-22T00:53:58.494Z,536.54
2023-05-22T00:54:18.489Z,536.47
2023-05-22T00:54:28.528Z,536.67
2023-05-22T00:54:38.501Z,536.60
2023-05-22T00:54:48.504Z,536.40
2023-05-22T00:54:58.497Z,536.48
2023-05-22T00:55:08.517Z,536.39
2023-05-22T00:55:18.506Z,536.32
2023-05-22T00:55:38.500Z,536.53
2023-05-22T00:55:48.537Z,536.43
2023-05-22T00:55:58.542Z,536.46
2023-05-22T00:56:08.523Z,536.27
2023-05-22T00:56:18.511Z,536.25
2023-05-22T00:56:28.509Z,536.67
2023-05-22T00:56:38.507Z,536.43
2023-05-22T00:56:48.504Z,536.46
2023-05-22T00:57:08.514Z,536.44
2023-05-22T00:57:18.510Z,536.43
2023-05-22T00:57:28.520Z,536.48
2023-05-22T00:57:38.513Z,536.59
2023-05-22T00:57:48.516Z,536.33
2023-05-22T00:57:58.523Z,536.22
2023-05-22T00:58:08.544Z,536.38
2023-05-22T00:58:18.520Z,536.36
2023-05-22T00:58:28.528Z,536.37
2023-05-22T00:58:38.511Z,536.32
2023-05-22T00:58:48.512Z,536.41
2023-05-22T00:59:08.606Z,536.31
2023-05-22T00:59:18.536Z,536.34
2023-05-22T00:59:28.526Z,536.36
2023-05-22T00:59:38.521Z,536.24
2023-05-22T00:59:48.530Z,536.25
2023-05-22T00:59:58.524Z,536.26
2023-05-22T01:00:18.529Z,536.29
2023-05-22T01:00:28.552Z,536.20
2023-05-22T01:00:38.753Z,536.20
2023-05-22T01:00:48.529Z,536.24
2023-05-22T01:00:58.530Z,536.21
2023-05-22T01:01:08.527Z,536.31
2023-05-22T01:01:18.581Z,536.27
2023-05-22T01:01:38.568Z,536.11
2023-05-22T01:01:48.581Z,536.16
2023-05-22T01:01:58.629Z,536.05
2023-05-22T01:02:08.612Z,536.09
2023-05-22T01:02:18.543Z,536.06
2023-05-22T01:02:28.530Z,536.06
2023-05-22T01:02:38.558Z,536.10
2023-05-22T01:02:48.605Z,536.02
2023-05-22T01:02:58.608Z,536.05
2023-05-22T01:03:18.660Z,536.05
2023-05-22T01:03:28.580Z,535.94
2023-05-22T01:03:38.580Z,536.02
2023-05-22T01:03:48.580Z,535.99
2023-05-22T01:03:58.654Z,535.95
2023-05-22T01:04:08.641Z,536.01
2023-05-22T01:04:18.700Z,536.02
2023-05-22T01:04:28.552Z,535.98
2023-05-22T01:04:38.542Z,536.06
2023-05-22T01:04:48.577Z,536.27
2023-05-22T01:04:58.552Z,536.16
2023-05-22T01:05:08.544Z,536.13
2023-05-22T01:05:18.561Z,536.15
2023-05-22T01:05:28.551Z,536.18
2023-05-22T01:05:38.549Z,536.17
2023-05-22T01:05:58.546Z,536.22
2023-05-22T01:06:08.542Z,536.30
2023-05-22T01:06:18.599Z,536.33
2023-05-22T01:06:28.551Z,536.32
2023-05-22T01:06:38.563Z,536.39
2023-05-22T01:06:48.545Z,536.70
2023-05-22T01:06:58.553Z,536.48
2023-05-22T01:07:18.554Z,536.70
2023-05-22T01:07:28.547Z,536.46
2023-05-22T01:07:38.592Z,536.52
2023-05-22T01:07:48.559Z,536.50
2023-05-22T01:07:58.547Z,536.44
2023-05-22T01:08:08.559Z,536.48
2023-05-22T01:08:18.551Z,536.40
2023-05-22T01:08:28.572Z,536.46
2023-05-22T01:08:38.552Z,536.58
2023-05-22T01:08:48.597Z,536.62
2023-05-22T01:08:58.556Z,536.57
2023-05-22T01:09:08.555Z,536.62
2023-05-22T01:09:18.564Z,536.56
2023-05-22T01:09:38.552Z,537.03
2023-05-22T01:09:48.596Z,536.63
2023-05-22T01:09:58.591Z,536.64
2023-05-22T01:10:08.554Z,536.75
2023-05-22T01:10:18.560Z,536.77
2023-05-22T01:10:28.553Z,536.56
2023-05-22T01:10:48.562Z,536.45
2023-05-22T01:10:58.555Z,536.67
2023-05-22T01:11:08.590Z,536.86
2023-05-22T01:11:18.558Z,536.62
2023-05-22T01:11:28.585Z,536.68
2023-05-22T01:11:38.567Z,536.82
2023-05-22T01:11:48.560Z,536.63
2023-05-22T01:11:58.560Z,536.69
2023-05-22T01:12:18.579Z,536.60
2023-05-22T01:12:28.565Z,536.69
2023-05-22T01:12:38.579Z,536.63
2023-05-22T01:12:48.567Z,536.66
2023-05-22T01:12:58.569Z,536.74
2023-05-22T01:13:08.566Z,536.66
2023-05-22T01:13:18.574Z,536.32
2023-05-22T01:13:28.565Z,536.53
2023-05-22T01:13:38.576Z,536.63
2023-05-22T01:13:48.586Z,536.26
2023-05-22T01:13:58.570Z,536.59
2023-05-22T01:14:08.572Z,536.79
2023-05-22T01:14:18.574Z,536.76
2023-05-22T01:14:28.571Z,536.76
2023-05-22T01:14:48.646Z,536.60
2023-05-22T01:14:58.597Z,536.69
2023-05-22T01:15:08.576Z,536.63
2023-05-22T01:15:18.577Z,536.44
2023-05-22T01:15:28.579Z,536.45
2023-05-22T01:15:38.583Z,536.54
2023-05-22T01:15:58.608Z,536.77
2023-05-22T01:16:08.635Z,536.33
2023-05-22T01:16:18.592Z,536.41
2023-05-22T01:16:28.647Z,536.42
2023-05-22T01:16:38.597Z,536.40
2023-05-22T01:16:48.664Z,536.21
2023-05-22T01:16:58.600Z,536.34
2023-05-22T01:17:08.609Z,536.25
2023-05-22T01:17:18.588Z,536.50
2023-05-22T01:17:28.679Z,536.35
2023-05-22T01:17:38.609Z,536.22
2023-05-22T01:17:48.695Z,536.11
2023-05-22T01:17:58.679Z,536.30
2023-05-22T01:18:18.593Z,536.09
2023-05-22T01:18:28.601Z,536.29
2023-05-22T01:18:38.593Z,536.03
2023-05-22T01:18:48.614Z,536.23
2023-05-22T01:18:58.664Z,536.08
2023-05-22T01:19:08.639Z,536.11
2023-05-22T01:19:18.631Z,536.26
2023-05-22T01:19:28.734Z,536.40
2023-05-22T01:19:38.599Z,536.27
2023-05-22T01:19:48.607Z,536.30
2023-05-22T01:20:08.606Z,536.32
2023-05-22T01:20:18.596Z,536.32
2023-05-22T01:20:28.611Z,536.27
2023-05-22T01:20:38.828Z,536.27
2023-05-22T01:20:48.827Z,536.34
2023-05-22T01:20:58.595Z,536.43
2023-05-22T01:21:18.612Z,536.52
2023-05-22T01:21:28.604Z,536.31
2023-05-22T01:21:38.616Z,536.54
2023-05-22T01:21:48.612Z,536.71
2023-05-22T01:21:58.613Z,536.74
2023-05-22T01:22:08.630Z,536.64
2023-05-22T01:22:18.607Z,536.40
2023-05-22T01:22:28.623Z,536.53
2023-05-22T01:22:38.623Z,536.47
2023-05-22T01:22:48.613Z,536.55
2023-05-22T01:22:58.788Z,536.43
2023-05-22T01:23:08.621Z,536.33
2023-05-22T01:23:18.632Z,536.53
2023-05-22T01:23:38.656Z,536.45
2023-05-22T01:23:48.624Z,536.52
2023-05-22T01:23:58.613Z,536.41
2023-05-22T01:24:08.632Z,536.43
2023-05-22T01:24:18.616Z,536.41
2023-05-22T01:24:28.616Z,536.48
2023-05-22T01:24:48.637Z,536.52
2023-05-22T01:24:58.635Z,536.64
2023-05-22T01:25:08.619Z,536.60
2023-05-22T01:25:18.618Z,536.69
2023-05-22T01:25:28.658Z,536.67
2023-05-22T01:25:38.623Z,536.51
2023-05-22T01:25:48.645Z,536.36
2023-05-22T01:26:08.647Z,536.66
2023-05-22T01:26:18.621Z,536.67
2023-05-22T01:26:28.628Z,536.75
2023-05-22T01:26:38.624Z,536.59
2023-05-22T01:26:48.624Z,537.38
2023-05-22T01:26:58.653Z,536.80
2023-05-22T01:27:18.625Z,536.46
2023-05-22T01:27:28.624Z,536.60
2023-05-22T01:27:38.623Z,536.52
2023-05-22T01:27:48.632Z,536.38
2023-05-22T01:27:58.637Z,536.84
2023-05-22T01:28:08.628Z,537.07
2023-05-22T01:28:18.629Z,536.49
2023-05-22T01:28:28.634Z,536.81
2023-05-22T01:28:38.640Z,536.69
2023-05-22T01:28:48.643Z,536.54
2023-05-22T01:28:58.648Z,536.53
2023-05-22T01:29:08.632Z,536.49
2023-05-22T01:29:18.639Z,536.53
2023-05-22T01:29:28.640Z,536.48
2023-05-22T01:29:48.642Z,536.78
2023-05-22T01:29:58.673Z,536.67
2023-05-22T01:30:08.641Z,536.74
2023-05-22T01:30:18.646Z,536.92
2023-05-22T01:30:28.656Z,537.08
2023-05-22T01:30:38.773Z,536.84
2023-05-22T01:30:48.672Z,536.83
2023-05-22T01:31:08.641Z,537.87
2023-05-22T01:31:18.675Z,536.97
2023-05-22T01:31:28.667Z,537.03
2023-05-22T01:31:38.645Z,537.06
2023-05-22T01:31:48.642Z,537.19
2023-05-22T01:31:58.642Z,536.74
2023-05-22T01:32:08.648Z,536.89
2023-05-22T01:32:18.665Z,537.52
2023-05-22T01:32:28.747Z,536.99
2023-05-22T01:32:38.772Z,536.91
2023-05-22T01:32:58.748Z,536.88
2023-05-22T01:33:08.726Z,536.94
2023-05-22T01:33:18.805Z,537.05
2023-05-22T01:33:28.835Z,537.13
2023-05-22T01:33:38.717Z,536.95
2023-05-22T01:33:48.804Z,537.13
2023-05-22T01:33:58.800Z,537.14
2023-05-22T01:34:08.662Z,537.12
2023-05-22T01:34:18.684Z,537.02
2023-05-22T01:34:38.665Z,536.78
2023-05-22T01:34:48.678Z,537.00
2023-05-22T01:34:58.670Z,536.91
2023-05-22T01:35:08.656Z,537.14
2023-05-22T01:35:18.666Z,537.18
2023-05-22T01:35:28.662Z,536.90
2023-05-22T01:35:38.673Z,537.07
2023-05-22T01:35:48.679Z,537.14
2023-05-22T01:36:08.671Z,537.00
2023-05-22T01:36:18.665Z,537.19
2023-05-22T01:36:28.677Z,537.54
2023-05-22T01:36:38.665Z,537.03
2023-05-22T01:36:48.669Z,537.17
2023-05-22T01:36:58.692Z,537.21
2023-05-22T01:37:18.668Z,537.24
2023-05-22T01:37:28.674Z,537.01
2023-05-22T01:37:38.699Z,537.30
2023-05-22T01:37:48.681Z,537.02
2023-05-22T01:37:58.682Z,537.73
2023-05-22T01:38:08.672Z,537.53
2023-05-22T01:38:18.671Z,537.41
2023-05-22T01:38:28.671Z,537.19
2023-05-22T01:38:48.703Z,537.33
2023-05-22T01:38:58.701Z,537.26
2023-05-22T01:39:08.681Z,537.70
2023-05-22T01:39:18.682Z,537.32
2023-05-22T01:39:28.672Z,537.34
2023-05-22T01:39:38.677Z,537.37
2023-05-22T01:39:48.689Z,537.46
2023-05-22T01:39:58.697Z,537.52
2023-05-22T01:40:08.678Z,537.20
2023-05-22T01:40:18.686Z,538.05
2023-05-22T01:40:28.688Z,537.60
2023-05-22T01:40:48.689Z,537.63
2023-05-22T01:40:58.691Z,537.73
2023-05-22T01:41:08.698Z,537.53
2023-05-22T01:41:18.692Z,537.63
2023-05-22T01:41:28.687Z,537.67
2023-05-22T01:41:38.686Z,537.96
2023-05-22T01:41:48.703Z,537.71
2023-05-22T01:41:58.690Z,537.72
2023-05-22T01:42:08.694Z,537.73
2023-05-22T01:42:18.710Z,537.72
2023-05-22T01:42:28.689Z,537.98
2023-05-22T01:42:38.690Z,537.68
2023-05-22T01:42:58.697Z,537.72
2023-05-22T01:43:08.697Z,537.62
2023-05-22T01:43:18.696Z,538.11
2023-05-22T01:43:28.709Z,537.52
2023-05-22T01:43:38.693Z,537.51
2023-05-22T01:43:48.693Z,537.43
2023-05-22T01:43:58.702Z,537.67
2023-05-22T01:44:08.693Z,537.35
2023-05-22T01:44:28.695Z,537.53
2023-05-22T01:44:38.708Z,537.72
2023-05-22T01:44:48.695Z,537.41
2023-05-22T01:44:58.732Z,537.48
2023-05-22T01:45:08.736Z,537.53
2023-05-22T01:45:18.712Z,537.47
2023-05-22T01:45:28.755Z,537.71
2023-05-22T01:45:38.746Z,537.42
2023-05-22T01:45:48.735Z,537.72
2023-05-22T01:46:08.785Z,537.50
2023-05-22T01:46:18.829Z,537.46
2023-05-22T01:46:28.759Z,537.60
2023-05-22T01:46:38.708Z,537.60
2023-05-22T01:46:48.722Z,537.61
2023-05-22T01:46:58.704Z,537.23
2023-05-22T01:47:08.706Z,537.46
2023-05-22T01:47:18.707Z,537.41
2023-05-22T01:47:28.762Z,537.54
2023-05-22T01:47:38.761Z,537.62
2023-05-22T01:47:48.817Z,537.39
2023-05-22T01:47:58.824Z,537.44
2023-05-22T01:48:08.759Z,537.57
2023-05-22T01:48:18.708Z,537.43
2023-05-22T01:48:28.709Z,537.36
2023-05-22T01:48:38.729Z,537.36
2023-05-22T01:48:48.715Z,537.45
2023-05-22T01:48:58.728Z,537.53
2023-05-22T01:49:08.711Z,537.16
2023-05-22T01:49:18.719Z,537.38
2023-05-22T01:49:28.716Z,537.48
2023-05-22T01:49:38.728Z,537.48
2023-05-22T01:49:48.723Z,537.25
2023-05-22T01:49:58.714Z,537.31
2023-05-22T01:50:08.797Z,537.32
2023-05-22T01:50:18.726Z,537.20
2023-05-22T01:50:28.732Z,537.66
2023-05-22T01:50:38.936Z,537.32
2023-05-22T01:50:48.735Z,537.31
2023-05-22T01:50:58.725Z,537.46
2023-05-22T01:51:18.723Z,537.15
2023-05-22T01:51:28.727Z,537.45
2023-05-22T01:51:38.723Z,537.26
2023-05-22T01:51:48.739Z,537.34
2023-05-22T01:51:58.747Z,537.29
2023-05-22T01:52:08.747Z,537.43
2023-05-22T01:52:18.731Z,537.45
2023-05-22T01:52:28.734Z,537.37
2023-05-22T01:52:38.735Z,537.28
2023-05-22T01:52:48.732Z,537.54
2023-05-22T01:52:58.736Z,537.56
2023-05-22T01:53:08.742Z,537.46
2023-05-22T01:53:18.749Z,537.38
2023-05-22T01:53:28.753Z,537.43
2023-05-22T01:53:38.759Z,537.63
2023-05-22T01:53:48.742Z,537.41
2023-05-22T01:53:58.757Z,537.40
2023-05-22T01:54:08.750Z,537.44
2023-05-22T01:54:18.746Z,537.38
2023-05-22T01:54:28.751Z,537.31
2023-05-22T01:54:48.758Z,537.47
2023-05-22T01:54:58.752Z,537.47
2023-05-22T01:55:08.760Z,537.43
2023-05-22T01:55:18.746Z,537.41
2023-05-22T01:55:28.747Z,537.55
2023-05-22T01:55:38.767Z,537.35
2023-05-22T01:55:48.750Z,537.74
2023-05-22T01:55:58.752Z,537.54
2023-05-22T01:56:18.753Z,537.68
2023-05-22T01:56:28.770Z,537.48
2023-05-22T01:56:38.778Z,537.49
2023-05-22T01:56:48.753Z,537.48
2023-05-22T01:56:58.755Z,537.37
2023-05-22T01:57:08.758Z,537.63
2023-05-22T01:57:28.785Z,537.48
2023-05-22T01:57:38.759Z,537.54
2023-05-22T01:57:48.759Z,537.51
2023-05-22T01:57:58.757Z,537.44
2023-05-22T01:58:08.772Z,537.64
2023-05-22T01:58:18.768Z,537.54
2023-05-22T01:58:38.764Z,537.82
2023-05-22T01:58:48.765Z,537.51
2023-05-22T01:58:58.761Z,537.58
2023-05-22T01:59:08.767Z,537.57
2023-05-22T01:59:18.801Z,537.65
2023-05-22T01:59:28.771Z,537.63
2023-05-22T01:59:38.767Z,537.52
2023-05-22T01:59:48.766Z,537.59
2023-05-22T01:59:58.780Z,537.49
2023-05-22T02:00:08.807Z,537.37
2023-05-22T02:00:18.807Z,537.58
2023-05-22T02:00:28.790Z,537.37
2023-05-22T02:00:48.779Z,537.61
2023-05-22T02:00:58.821Z,537.52
2023-05-22T02:01:09.208Z,537.52
2023-05-22T02:01:18.787Z,537.48
2023-05-22T02:01:28.792Z,537.46
2023-05-22T02:01:38.818Z,537.43
2023-05-22T02:01:48.868Z,537.23
2023-05-22T02:01:58.820Z,537.58
2023-05-22T02:02:08.805Z,537.50
2023-05-22T02:02:18.801Z,537.56
2023-05-22T02:02:38.868Z,537.51
2023-05-22T02:02:48.916Z,537.48
2023-05-22T02:02:58.885Z,537.46
2023-05-22T02:03:08.923Z,538.10
2023-05-22T02:03:18.912Z,537.74
2023-05-22T02:03:28.936Z,537.58
2023-05-22T02:03:38.872Z,537.56
2023-05-22T02:03:48.819Z,537.51
2023-05-22T02:03:58.788Z,537.60
2023-05-22T02:04:08.798Z,537.72
2023-05-22T02:04:18.793Z,537.56
2023-05-22T02:04:28.786Z,537.83
2023-05-22T02:04:48.783Z,537.77
2023-05-22T02:04:58.840Z,537.75
2023-05-22T02:05:08.841Z,537.74
2023-05-22T02:05:18.800Z,537.75
2023-05-22T02:05:28.817Z,537.81
2023-05-22T02:05:38.810Z,537.75
2023-05-22T02:05:48.792Z,537.78
2023-05-22T02:05:58.801Z,537.76
2023-05-22T02:06:18.801Z,538.05
2023-05-22T02:06:28.814Z,537.89
2023-05-22T02:06:38.793Z,537.96
2023-05-22T02:06:48.796Z,537.92
2023-05-22T02:06:58.810Z,537.91
2023-05-22T02:07:10.091Z,537.93
2023-05-22T02:07:18.808Z,537.96
2023-05-22T02:07:28.808Z,538.04
2023-05-22T02:07:38.817Z,537.89
2023-05-22T02:07:48.803Z,537.74
2023-05-22T02:08:08.793Z,538.00
2023-05-22T02:08:18.815Z,537.92
2023-05-22T02:08:28.799Z,538.10
2023-05-22T02:08:38.821Z,537.95
2023-05-22T02:08:48.801Z,537.84
2023-05-22T02:08:58.799Z,537.96
2023-05-22T02:09:08.802Z,537.92
2023-05-22T02:09:18.804Z,537.92
2023-05-22T02:09:28.806Z,537.98
2023-05-22T02:09:48.813Z,537.85
2023-05-22T02:09:58.804Z,538.05
2023-05-22T02:10:08.831Z,538.01
2023-05-22T02:10:18.810Z,537.95
2023-05-22T02:10:28.809Z,537.90
2023-05-22T02:10:39.009Z,537.88
2023-05-22T02:10:48.810Z,537.96
2023-05-22T02:10:58.815Z,537.95
2023-05-22T02:11:18.849Z,537.95
2023-05-22T02:11:28.814Z,537.91
2023-05-22T02:11:38.837Z,537.98
2023-05-22T02:11:48.818Z,537.89
2023-05-22T02:11:58.817Z,537.84
2023-05-22T02:12:08.822Z,538.23
2023-05-22T02:12:28.822Z,537.85
2023-05-22T02:12:38.834Z,537.89
2023-05-22T02:12:48.828Z,538.01
2023-05-22T02:12:58.827Z,537.91
2023-05-22T02:13:08.816Z,537.95
2023-05-22T02:13:18.821Z,537.87
2023-05-22T02:13:28.835Z,538.01
2023-05-22T02:13:38.843Z,538.01
2023-05-22T02:13:48.823Z,538.05
2023-05-22T02:13:58.829Z,537.96
2023-05-22T02:14:08.852Z,538.03
2023-05-22T02:14:28.834Z,538.08
2023-05-22T02:14:38.844Z,538.10
2023-05-22T02:14:48.830Z,538.09
2023-05-22T02:14:58.837Z,538.09
2023-05-22T02:15:08.842Z,538.15
2023-05-22T02:15:18.829Z,538.13
2023-05-22T02:15:28.877Z,538.14
2023-05-22T02:15:38.951Z,538.28
2023-05-22T02:15:48.926Z,538.33
2023-05-22T02:15:58.846Z,538.30
2023-05-22T02:16:18.873Z,538.29
2023-05-22T02:16:28.847Z,538.27
2023-05-22T02:16:38.847Z,538.33
2023-05-22T02:16:48.890Z,538.33
2023-05-22T02:16:58.852Z,538.35
2023-05-22T02:17:08.867Z,538.47
2023-05-22T02:17:18.845Z,538.53
2023-05-22T02:17:28.899Z,538.44